LTAT/MLX METAR and TAF weather

Enter ICAO airport designator
Station Type Date Time Source
LTAT METAR 2019/04/26 03:50 UTC NOAA

LTAT 260350Z 21002KT CAVOK 05/04 Q1022 NOSIG


Station Type Date Time Source
LTAT Decoded METAR 2019/04/26 03:50 UTC NOAA

Malatya / Erhac, Turkey (LTAT) 38-26N 038-05E 849M
Apr 25, 2019 - 11:50 PM EDT / 2019.04.26 0350 UTC
Wind: from the SSW (210 degrees) at 2 MPH (2 KT):0
Visibility: greater than 7 mile(s):0
Temperature: 41 F (5 C)
Dew Point: 39 F (4 C)
Relative Humidity: 93%
Pressure (altimeter): 30.18 in. Hg (1022 hPa)
ob: LTAT 260350Z 21002KT CAVOK 05/04 Q1022 NOSIG
cycle: 4

Station Type Date Time Source
LTAT TAF 2019/04/25 18:03 UTC NOAA

TAF LTAT 251640Z 2518/2618 VRB02KT CAVOK

Example: see airport list